»·PEaware :: N4D KEMT-KLPC

N4D :: KEMT-KLPC

FLIGHT INFORMATION

Flight Status: Arrived
Operator: Privately registered:
United States
More flights under this callsign
Pilot: Alec D. (17934)
Aircraft: BEECH AIRCRAFT A90-E90 KING AIR
(BE9L)
More flights by this aircraft type
Origin: KEMT El Monte
United States
Destination: KLPC Lompoc
United States
More flights between these airports :: More routes between these airports
Route: +PDZ V186 FIM V386 RZS V12 GVO
File this flight plan on PilotEdge
Remarks:
Altitude:
(Current/Filed)
10,000ft
Speed:
(Current/Filed)
235kts
Departed: 02-Aug-18 07:29 AM
Arrived: 02-Aug-18 08:16 AM
Distance/Time
Traveled:
125nm/0:47
Distance/Time
To Go:
Arrived

Flight Plot

Page will automatically refresh every two minutes.

Flight plan parsing failed; only flown route is shown


Map Options




Map Legend


Flown Route
Filed Route
Departure Airport
Arrival Airport
Navaid (VOR, NDB)
Fix

Horizontal Profiles

Position Reports

Time Latitude Longitude Heading Altitude Ground
Speed
02-Aug-18 06:55 34.085302 -118.032837 115 301ft 0kts
02-Aug-18 06:56 34.085302 -118.032837 115 301ft 0kts
02-Aug-18 06:57 34.085302 -118.032837 115 301ft 0kts
02-Aug-18 06:58 34.085302 -118.032837 115 301ft 0kts
02-Aug-18 06:59 34.085302 -118.032837 115 301ft 0kts
02-Aug-18 07:00 34.085302 -118.032837 115 301ft 0kts
02-Aug-18 07:01 34.085302 -118.032837 115 301ft 0kts
02-Aug-18 07:02 34.085302 -118.032837 115 301ft 0kts
02-Aug-18 07:03 34.085302 -118.032837 115 301ft 0kts
02-Aug-18 07:04 34.085302 -118.032836 115 301ft 0kts
02-Aug-18 07:05 34.085300 -118.032832 115 301ft 0kts
02-Aug-18 07:06 34.085298 -118.032828 115 301ft 0kts
02-Aug-18 07:07 34.085297 -118.032824 115 301ft 0kts
02-Aug-18 07:08 34.085295 -118.032820 115 301ft 0kts
02-Aug-18 07:09 34.085294 -118.032816 115 301ft 0kts
02-Aug-18 07:10 34.085292 -118.032812 115 301ft 0kts
02-Aug-18 07:11 34.085291 -118.032808 115 301ft 0kts
02-Aug-18 07:12 34.085289 -118.032804 115 301ft 0kts
02-Aug-18 07:13 34.085288 -118.032800 115 301ft 0kts
02-Aug-18 07:14 34.085286 -118.032797 115 301ft 0kts
02-Aug-18 07:15 34.085285 -118.032793 115 301ft 0kts
02-Aug-18 07:16 34.085283 -118.032789 115 301ft 0kts
02-Aug-18 07:17 34.085282 -118.032785 115 301ft 0kts
02-Aug-18 07:18 34.085280 -118.032781 115 301ft 0kts
02-Aug-18 07:19 34.085279 -118.032778 115 301ft 0kts
02-Aug-18 07:20 34.085277 -118.032774 115 301ft 0kts
02-Aug-18 07:21 34.085276 -118.032770 115 301ft 0kts
02-Aug-18 07:22 34.085275 -118.032767 115 301ft 0kts
02-Aug-18 07:23 34.085273 -118.032763 115 301ft 0kts
02-Aug-18 07:24 34.085272 -118.032760 115 301ft 0kts
02-Aug-18 07:25 34.085270 -118.032756 115 301ft 0kts
02-Aug-18 07:26 34.085575 -118.033559 296 301ft 15kts
02-Aug-18 07:27 34.089186 -118.032191 24 301ft 14kts
02-Aug-18 07:28 34.090430 -118.031610 332 301ft 0kts
02-Aug-18 07:29 34.090530 -118.032260 204 301ft 0kts
02-Aug-18 07:30 34.074423 -118.041344 203 582ft 116kts
02-Aug-18 07:31 34.039428 -118.055760 164 1885ft 143kts
02-Aug-18 07:32 34.033908 -118.010611 77 3365ft 152kts
02-Aug-18 07:33 34.041684 -117.958913 79 4765ft 164kts
02-Aug-18 07:34 34.042642 -117.904104 104 6099ft 171kts
02-Aug-18 07:35 34.055883 -117.863244 345 7277ft 163kts
02-Aug-18 07:36 34.095212 -117.889492 301 8579ft 167kts
02-Aug-18 07:37 34.105701 -117.943904 281 9776ft 171kts
02-Aug-18 07:38 34.115944 -118.008237 280 9996ft 219kts
02-Aug-18 07:39 34.127517 -118.083201 280 9982ft 233kts
02-Aug-18 07:40 34.139301 -118.159986 280 9999ft 233kts
02-Aug-18 07:41 34.151187 -118.237778 280 9987ft 237kts
02-Aug-18 07:42 34.169418 -118.313666 290 9992ft 237kts
02-Aug-18 07:43 34.191874 -118.387535 290 10002ft 233kts
02-Aug-18 07:44 34.214330 -118.461667 290 10003ft 236kts
02-Aug-18 07:45 34.233840 -118.523141 293 10007ft 237kts
02-Aug-18 07:46 34.259242 -118.596060 292 10011ft 237kts
02-Aug-18 07:47 34.288398 -118.681135 292 10018ft 232kts
02-Aug-18 07:48 34.308995 -118.741403 292 10027ft 236kts
02-Aug-18 07:49 34.333833 -118.814230 292 10031ft 232kts
02-Aug-18 07:50 34.360097 -118.899660 281 10032ft 234kts
02-Aug-18 07:51 34.371124 -118.963491 281 10028ft 231kts
02-Aug-18 07:52 34.384415 -119.039750 281 10024ft 230kts
02-Aug-18 07:53 34.399915 -119.128914 281 10006ft 234kts
02-Aug-18 07:54 34.410940 -119.192565 281 10015ft 230kts
02-Aug-18 07:55 34.424054 -119.268557 281 10025ft 229kts
02-Aug-18 07:56 34.437126 -119.344591 281 9741ft 236kts
02-Aug-18 07:57 34.450539 -119.422818 281 8635ft 236kts
02-Aug-18 07:58 34.463597 -119.499425 281 8032ft 227kts
02-Aug-18 07:59 34.476126 -119.573181 281 8018ft 221kts
02-Aug-18 08:00 34.488646 -119.647146 281 7262ft 226kts
02-Aug-18 08:01 34.501210 -119.721697 281 6159ft 223kts
02-Aug-18 08:02 34.511163 -119.793911 274 5608ft 214kts
02-Aug-18 08:03 34.515944 -119.862202 274 5397ft 188kts
02-Aug-18 08:04 34.519966 -119.922581 274 5408ft 175kts
02-Aug-18 08:05 34.523891 -119.980698 274 5420ft 172kts
02-Aug-18 08:06 34.527742 -120.037931 274 5426ft 167kts
02-Aug-18 08:07 34.534905 -120.092992 304 5339ft 170kts
02-Aug-18 08:08 34.574480 -120.130842 323 4491ft 182kts
02-Aug-18 08:09 34.610757 -120.164120 324 4422ft 155kts
02-Aug-18 08:10 34.646469 -120.196073 325 3483ft 156kts
02-Aug-18 08:11 34.662329 -120.240797 273 3164ft 150kts
02-Aug-18 08:12 34.663151 -120.292397 273 3020ft 150kts
02-Aug-18 08:13 34.663835 -120.343610 272 2532ft 148kts
02-Aug-18 08:14 34.664536 -120.391291 271 1461ft 133kts
02-Aug-18 08:15 34.664933 -120.432284 272 681ft 112kts
02-Aug-18 08:16 34.665624 -120.467022 269 93ft 57kts
02-Aug-18 08:17 34.666208 -120.471850 36 93ft 0kts
02-Aug-18 08:18 34.666440 -120.464995 89 93ft 28kts
02-Aug-18 08:19 34.666885 -120.459853 359 93ft 4kts
02-Aug-18 08:20 34.667020 -120.459853 359 93ft 0kts
02-Aug-18 08:21 34.667020 -120.459853 359 93ft 0kts
02-Aug-18 08:22 34.667020 -120.459853 359 93ft 0kts
02-Aug-18 08:23 34.667020 -120.459853 359 93ft 0kts

Navigation Log

Ident Type
Flight plan parsing failed, navigation log unavailable